Shenandoah, IA

7:16 AM CST on February 14, 2016 (GMT -0600)
Shenandoah Municipal

Weather History for KSDA - June, 2011

Change the Weather History Date:

Monday, June 20, 2011

  Actual Average Record
Temperature  
Mean Temperature 74 °F -  
Max Temperature 87 °F 86 °F 100 °F (1988)
Min Temperature 62 °F 62 °F 46 °F (1961)
Cooling Degree Days 10    
Growing Degree Days 24 (Base 50)    
Moisture  
Dew Point 66 °F    
Average Humidity 73    
Maximum Humidity 88    
Minimum Humidity 58    
Precipitation  
Precipitation 0.30 in - - ()
Sea Level Pressure  
Sea Level Pressure 29.52 in    
Wind  
Wind Speed 13 mph (SE)    
Max Wind Speed 23 mph    
Max Gust Speed 47 mph    
Visibility 10 miles    
Events Rain    
Averages and records for this station are not official NWS values.
T = Trace of Precipitation, MM = Missing Value Source: NWS Daily Summary

Daily Weather History Graph

Daily Weather History Graph

Search for Another Location

Airport or City:

Trip Planner

Search our weather history database for the weather conditions in past years. The results will help you decide how hot, cold, wet, or windy it might be!

Date:

Astronomy

Jun. 20, 2011 Rise Set
Actual Time 5:50 AM CDT 8:56 PM CDT
Civil Twilight 5:16 AM CDT 9:29 PM CDT
Nautical Twilight 4:34 AM CDT 10:12 PM CDT
Astronomical Twilight 3:43 AM CDT 11:02 PM CDT
Moon No Moon Rise 10:52 AM CDT (6/20)
Length of Visible Light 16h 12m
Length of Day
15h 05m
Waning Gibbous, 76% of the Moon is Illuminated
Jun 20
Waning Gibbous
Jun 23
Last Quarter
Jul 1
New
Jul 8
First Quarter
Jul 15
Full

Hourly Weather History & Observations

Time (CDT) Temp. Heat Index Dew Point Humidity Pressure Visibility Wind Dir Wind Speed Gust Speed Precip Events Conditions
12:37 AM 68.0 °F - 59.0 °F 73% 29.56 in 10.0 mi ESE 9.2 mph - N/A   Scattered Clouds
1:35 AM 68.0 °F - 60.8 °F 78% 29.53 in 10.0 mi ESE 11.5 mph - N/A   Scattered Clouds
2:35 AM 69.8 °F - 62.6 °F 78% 29.46 in 10.0 mi ESE 10.4 mph - N/A Rain Rain
2:37 AM 69.8 °F - 62.6 °F 78% 29.46 in 10.0 mi ESE 10.4 mph - N/A Rain Light Rain
2:55 AM 69.8 °F - 62.6 °F 78% 29.46 in 10.0 mi ESE 6.9 mph - N/A   Scattered Clouds
3:02 AM 69.8 °F - 62.6 °F 78% 29.46 in 10.0 mi ESE 9.2 mph - N/A   Scattered Clouds
3:35 AM 71.6 °F - 62.6 °F 73% 29.47 in 10.0 mi ESE 10.4 mph 19.6 mph N/A   Clear
3:55 AM 69.8 °F - 62.6 °F 78% 29.48 in 10.0 mi East 5.8 mph - N/A   Clear
4:15 AM 69.8 °F - 64.4 °F 83% 29.50 in 10.0 mi NE 6.9 mph - N/A   Scattered Clouds
4:35 AM 69.8 °F - 64.4 °F 83% 29.53 in 10.0 mi NNE 8.1 mph - N/A   Clear
4:55 AM 69.8 °F - 64.4 °F 83% 29.55 in 10.0 mi NNE 12.7 mph - N/A   Clear
5:15 AM 73.4 °F - 64.4 °F 73% 29.58 in 10.0 mi ENE 8.1 mph - N/A   Clear
5:35 AM 73.4 °F - 64.4 °F 73% 29.58 in 10.0 mi NE 15.0 mph - N/A   Scattered Clouds
5:55 AM 71.6 °F - 64.4 °F 78% 29.58 in 10.0 mi ENE 8.1 mph 19.6 mph N/A   Scattered Clouds
6:15 AM 71.6 °F - 62.6 °F 73% 29.59 in 10.0 mi ENE 8.1 mph 19.6 mph N/A   Clear
6:35 AM 69.8 °F - 62.6 °F 78% 29.58 in 10.0 mi ENE 12.7 mph 21.9 mph N/A   Clear
6:55 AM 69.8 °F - 60.8 °F 73% 29.58 in 10.0 mi East 17.3 mph 26.5 mph N/A   Clear
7:15 AM 69.8 °F - 60.8 °F 73% 29.58 in 10.0 mi ENE 12.7 mph 27.6 mph N/A   Clear
7:35 AM 69.8 °F - 62.6 °F 78% 29.57 in 10.0 mi East 18.4 mph 24.2 mph N/A   Clear
7:55 AM 71.6 °F - 62.6 °F 73% 29.56 in 10.0 mi East 17.3 mph 31.1 mph N/A   Clear
8:15 AM 71.6 °F - 62.6 °F 73% 29.56 in 10.0 mi East 16.1 mph 21.9 mph N/A   Clear
8:35 AM 71.6 °F - 62.6 °F 73% 29.55 in 10.0 mi East 18.4 mph 27.6 mph N/A   Clear
8:55 AM 71.6 °F - 62.6 °F 73% 29.54 in 10.0 mi East 16.1 mph 27.6 mph N/A   Clear
9:15 AM 73.4 °F - 64.4 °F 73% 29.54 in 10.0 mi ESE 18.4 mph 29.9 mph N/A   Clear
9:35 AM 73.4 °F - 64.4 °F 73% 29.54 in 10.0 mi ESE 20.7 mph 29.9 mph N/A   Clear
10:15 AM 75.2 °F - 66.2 °F 73% 29.54 in 10.0 mi ESE 20.7 mph 29.9 mph N/A   Clear
10:35 AM 77.0 °F - 66.2 °F 69% 29.53 in 10.0 mi ESE 19.6 mph 29.9 mph N/A   Clear
10:55 AM 77.0 °F - 68.0 °F 74% 29.52 in 10.0 mi ESE 21.9 mph 27.6 mph N/A   Clear
11:15 AM 78.8 °F - 68.0 °F 69% 29.52 in 10.0 mi SE 23.0 mph 28.8 mph N/A   Clear
11:35 AM 78.8 °F - 69.8 °F 74% 29.52 in 10.0 mi SE 21.9 mph 28.8 mph N/A   Clear
11:55 AM 80.6 °F 83.9 °F 69.8 °F 70% 29.51 in 10.0 mi SE 19.6 mph - N/A   Clear
12:15 PM 80.6 °F 83.9 °F 69.8 °F 70% 29.51 in 10.0 mi SE 17.3 mph 24.2 mph N/A   Clear
12:35 PM 82.4 °F 87.2 °F 71.6 °F 70% 29.51 in 10.0 mi SSE 15.0 mph 23.0 mph N/A   Clear
12:55 PM 82.4 °F 87.2 °F 71.6 °F 70% 29.51 in 10.0 mi SSE 17.3 mph 25.3 mph N/A   Clear
1:15 PM 84.2 °F 89.6 °F 71.6 °F 66% 29.51 in 10.0 mi SSE 16.1 mph 24.2 mph N/A   Unknown
1:35 PM 84.2 °F 89.6 °F 71.6 °F 66% 29.51 in 10.0 mi SSE 18.4 mph 26.5 mph N/A   Unknown
1:55 PM 86.0 °F 93.4 °F 73.4 °F 66% 29.50 in 10.0 mi SSE 17.3 mph 23.0 mph N/A   Unknown
2:35 PM 87.8 °F 93.8 °F 71.6 °F 58% 29.49 in 10.0 mi SSE 19.6 mph 25.3 mph N/A   Unknown
3:15 PM 87.8 °F 93.8 °F 71.6 °F 58% 29.49 in 10.0 mi SSE 17.3 mph 24.2 mph N/A   Unknown
3:35 PM 87.8 °F 93.8 °F 71.6 °F 58% 29.51 in 10.0 mi South 17.3 mph 26.5 mph N/A   Unknown
3:55 PM 87.8 °F 95.6 °F 73.4 °F 62% 29.52 in 10.0 mi South 17.3 mph 25.3 mph N/A   Unknown
4:15 PM 87.8 °F 95.6 °F 73.4 °F 62% 29.53 in 10.0 mi South 13.8 mph 20.7 mph N/A   Unknown
4:35 PM 87.8 °F 95.6 °F 73.4 °F 62% 29.53 in 10.0 mi South 12.7 mph 19.6 mph N/A   Unknown
4:55 PM 84.2 °F 89.6 °F 71.6 °F 66% 29.51 in 10.0 mi SSE 8.1 mph - N/A   Unknown
5:15 PM 84.2 °F 90.9 °F 73.4 °F 70% 29.50 in 10.0 mi SSE 8.1 mph - N/A   Unknown
5:35 PM 84.2 °F 90.9 °F 73.4 °F 70% 29.48 in 10.0 mi SE 10.4 mph - N/A   Unknown
5:55 PM 84.2 °F 89.6 °F 71.6 °F 66% 29.47 in 10.0 mi SE 13.8 mph 19.6 mph N/A   Unknown
6:15 PM 84.2 °F 90.9 °F 73.4 °F 70% 29.47 in 10.0 mi SSE 13.8 mph 23.0 mph N/A   Unknown
6:35 PM 84.2 °F 90.9 °F 73.4 °F 70% 29.46 in 10.0 mi SSE 10.4 mph - N/A   Unknown
6:55 PM 84.2 °F 89.6 °F 71.6 °F 66% 29.46 in 10.0 mi SSE 10.4 mph 13.8 mph N/A   Unknown
7:15 PM 84.2 °F 89.6 °F 71.6 °F 66% 29.46 in 10.0 mi SSE 9.2 mph - N/A   Unknown
7:35 PM 82.4 °F 87.2 °F 71.6 °F 70% 29.46 in 10.0 mi SSE 9.2 mph - N/A   Unknown
7:55 PM 82.4 °F 87.2 °F 71.6 °F 70% 29.47 in 10.0 mi SSE 5.8 mph - N/A   Unknown
8:15 PM 82.4 °F 87.2 °F 71.6 °F 70% 29.49 in 10.0 mi SSE 6.9 mph - N/A   Unknown
8:35 PM 80.6 °F 84.6 °F 71.6 °F 74% 29.49 in 10.0 mi SSE 6.9 mph - N/A   Unknown
8:55 PM 82.4 °F 87.2 °F 71.6 °F 70% 29.51 in 10.0 mi South 9.2 mph - N/A   Unknown
9:15 PM 73.4 °F - 60.8 °F 65% 29.59 in 10.0 mi WSW 23.0 mph 47.2 mph N/A Rain Light Rain
9:35 PM 62.6 °F - 59.0 °F 88% 29.59 in 7.0 mi WSW 18.4 mph 31.1 mph 0.17 in Rain Heavy Rain
10:15 PM 62.6 °F - 59.0 °F 88% 29.56 in 10.0 mi South 6.9 mph - N/A Rain Light Rain
10:35 PM 62.6 °F - 59.0 °F 88% 29.53 in 10.0 mi Calm Calm - 0.01 in Rain Light Rain
10:55 PM 62.6 °F - 59.0 °F 88% 29.52 in 10.0 mi ESE 9.2 mph - 0.03 in Rain Rain
11:15 PM 64.4 °F - 59.0 °F 83% 29.52 in 10.0 mi SE 15.0 mph - 0.05 in Rain Rain
11:35 PM 64.4 °F - 59.0 °F 83% 29.52 in 10.0 mi SSE 19.6 mph 24.2 mph 0.08 in Rain Light Rain
11:55 PM 64.4 °F - 59.0 °F 83% 29.50 in 10.0 mi SSE 20.7 mph 25.3 mph 0.10 in Rain Light Rain